sensor_id;sensor_type;location;lat;lon;timestamp;P1;durP1;ratioP1;P2;durP2;ratioP2
5042;SDS011;2540;50.928;6.856;2023-03-16T00:00:49;6.03;;;3.50;;
5042;SDS011;2540;50.928;6.856;2023-03-16T00:03:15;8.00;;;4.20;;
5042;SDS011;2540;50.928;6.856;2023-03-16T00:05:52;7.33;;;3.83;;
5042;SDS011;2540;50.928;6.856;2023-03-16T00:08:18;8.27;;;3.53;;
5042;SDS011;2540;50.928;6.856;2023-03-16T00:10:44;7.03;;;3.90;;
5042;SDS011;2540;50.928;6.856;2023-03-16T00:13:21;9.10;;;4.27;;
5042;SDS011;2540;50.928;6.856;2023-03-16T00:15:51;4.43;;;3.40;;
5042;SDS011;2540;50.928;6.856;2023-03-16T00:18:18;8.70;;;3.47;;
5042;SDS011;2540;50.928;6.856;2023-03-16T00:20:43;6.93;;;3.67;;
5042;SDS011;2540;50.928;6.856;2023-03-16T00:23:09;6.67;;;4.07;;
5042;SDS011;2540;50.928;6.856;2023-03-16T00:25:34;7.23;;;3.90;;
5042;SDS011;2540;50.928;6.856;2023-03-16T00:27:59;6.23;;;3.73;;
5042;SDS011;2540;50.928;6.856;2023-03-16T00:30:30;10.17;;;4.20;;
5042;SDS011;2540;50.928;6.856;2023-03-16T00:32:56;8.30;;;4.03;;
5042;SDS011;2540;50.928;6.856;2023-03-16T00:35:22;9.47;;;4.63;;
5042;SDS011;2540;50.928;6.856;2023-03-16T00:37:47;9.27;;;3.70;;
5042;SDS011;2540;50.928;6.856;2023-03-16T00:40:13;7.43;;;3.50;;
5042;SDS011;2540;50.928;6.856;2023-03-16T00:42:38;5.97;;;4.13;;
5042;SDS011;2540;50.928;6.856;2023-03-16T00:45:04;7.50;;;3.87;;
5042;SDS011;2540;50.928;6.856;2023-03-16T00:47:30;8.87;;;4.37;;
5042;SDS011;2540;50.928;6.856;2023-03-16T00:49:57;6.67;;;4.30;;
5042;SDS011;2540;50.928;6.856;2023-03-16T00:52:22;4.67;;;3.27;;
5042;SDS011;2540;50.928;6.856;2023-03-16T00:54:48;6.53;;;3.87;;
5042;SDS011;2540;50.928;6.856;2023-03-16T00:57:15;8.13;;;4.20;;
5042;SDS011;2540;50.928;6.856;2023-03-16T00:59:43;12.13;;;4.00;;
5042;SDS011;2540;50.928;6.856;2023-03-16T01:02:09;7.23;;;3.80;;
5042;SDS011;2540;50.928;6.856;2023-03-16T01:04:35;7.50;;;3.60;;
5042;SDS011;2540;50.928;6.856;2023-03-16T01:07:01;8.40;;;3.90;;
5042;SDS011;2540;50.928;6.856;2023-03-16T01:09:27;9.23;;;3.90;;
5042;SDS011;2540;50.928;6.856;2023-03-16T01:11:54;8.63;;;3.40;;
5042;SDS011;2540;50.928;6.856;2023-03-16T01:14:20;6.30;;;3.50;;
5042;SDS011;2540;50.928;6.856;2023-03-16T01:16:46;4.97;;;3.20;;
5042;SDS011;2540;50.928;6.856;2023-03-16T01:19:12;9.20;;;3.53;;
5042;SDS011;2540;50.928;6.856;2023-03-16T01:21:38;11.53;;;3.77;;
5042;SDS011;2540;50.928;6.856;2023-03-16T01:24:07;3.87;;;3.03;;
5042;SDS011;2540;50.928;6.856;2023-03-16T01:26:32;9.77;;;3.80;;
5042;SDS011;2540;50.928;6.856;2023-03-16T01:28:58;8.53;;;3.87;;
5042;SDS011;2540;50.928;6.856;2023-03-16T01:31:23;7.43;;;3.53;;
5042;SDS011;2540;50.928;6.856;2023-03-16T01:33:49;6.03;;;3.50;;
5042;SDS011;2540;50.928;6.856;2023-03-16T01:36:15;6.30;;;3.90;;
5042;SDS011;2540;50.928;6.856;2023-03-16T01:38:41;8.47;;;2.90;;
5042;SDS011;2540;50.928;6.856;2023-03-16T01:41:07;4.83;;;3.03;;
5042;SDS011;2540;50.928;6.856;2023-03-16T01:43:33;7.10;;;3.20;;
5042;SDS011;2540;50.928;6.856;2023-03-16T01:48:30;8.67;;;3.03;;
5042;SDS011;2540;50.928;6.856;2023-03-16T01:51:02;5.47;;;3.30;;
5042;SDS011;2540;50.928;6.856;2023-03-16T01:53:29;10.73;;;2.77;;
5042;SDS011;2540;50.928;6.856;2023-03-16T01:55:57;5.37;;;2.73;;
5042;SDS011;2540;50.928;6.856;2023-03-16T01:58:25;3.43;;;2.63;;
5042;SDS011;2540;50.928;6.856;2023-03-16T02:00:51;4.70;;;2.60;;
5042;SDS011;2540;50.928;6.856;2023-03-16T02:03:18;4.83;;;2.97;;
5042;SDS011;2540;50.928;6.856;2023-03-16T02:05:54;5.03;;;2.60;;
5042;SDS011;2540;50.928;6.856;2023-03-16T02:08:23;9.53;;;3.43;;
5042;SDS011;2540;50.928;6.856;2023-03-16T02:10:49;5.47;;;3.47;;
5042;SDS011;2540;50.928;6.856;2023-03-16T02:13:18;5.17;;;3.00;;
5042;SDS011;2540;50.928;6.856;2023-03-16T02:15:47;9.63;;;3.50;;
5042;SDS011;2540;50.928;6.856;2023-03-16T02:18:12;8.53;;;3.20;;
5042;SDS011;2540;50.928;6.856;2023-03-16T02:20:41;5.27;;;3.20;;
5042;SDS011;2540;50.928;6.856;2023-03-16T02:23:08;4.83;;;2.97;;
5042;SDS011;2540;50.928;6.856;2023-03-16T02:25:52;6.80;;;3.60;;
5042;SDS011;2540;50.928;6.856;2023-03-16T02:31:12;8.33;;;3.93;;
5042;SDS011;2540;50.928;6.856;2023-03-16T02:33:38;6.07;;;2.97;;
5042;SDS011;2540;50.928;6.856;2023-03-16T02:36:04;7.00;;;2.63;;
5042;SDS011;2540;50.928;6.856;2023-03-16T02:38:30;2.77;;;2.43;;
5042;SDS011;2540;50.928;6.856;2023-03-16T02:40:57;5.40;;;2.37;;
5042;SDS011;2540;50.928;6.856;2023-03-16T02:43:33;6.40;;;3.20;;
5042;SDS011;2540;50.928;6.856;2023-03-16T02:46:00;3.17;;;2.50;;
5042;SDS011;2540;50.928;6.856;2023-03-16T02:48:30;3.50;;;2.70;;
5042;SDS011;2540;50.928;6.856;2023-03-16T02:51:06;8.53;;;2.60;;
5042;SDS011;2540;50.928;6.856;2023-03-16T02:53:32;6.80;;;2.50;;
5042;SDS011;2540;50.928;6.856;2023-03-16T02:55:57;3.07;;;2.30;;
5042;SDS011;2540;50.928;6.856;2023-03-16T02:58:23;4.67;;;2.37;;
5042;SDS011;2540;50.928;6.856;2023-03-16T03:00:48;5.83;;;2.27;;
5042;SDS011;2540;50.928;6.856;2023-03-16T03:03:14;4.83;;;2.40;;
5042;SDS011;2540;50.928;6.856;2023-03-16T03:05:39;4.80;;;2.60;;
5042;SDS011;2540;50.928;6.856;2023-03-16T03:08:04;14.13;;;3.97;;
5042;SDS011;2540;50.928;6.856;2023-03-16T03:10:30;4.97;;;2.27;;
5042;SDS011;2540;50.928;6.856;2023-03-16T03:12:56;5.60;;;2.70;;
5042;SDS011;2540;50.928;6.856;2023-03-16T03:15:22;5.50;;;2.30;;
5042;SDS011;2540;50.928;6.856;2023-03-16T03:17:47;3.50;;;2.60;;
5042;SDS011;2540;50.928;6.856;2023-03-16T03:20:13;3.90;;;2.20;;
5042;SDS011;2540;50.928;6.856;2023-03-16T03:22:43;6.40;;;2.50;;
5042;SDS011;2540;50.928;6.856;2023-03-16T03:25:09;6.87;;;2.67;;
5042;SDS011;2540;50.928;6.856;2023-03-16T03:27:35;6.50;;;2.60;;
5042;SDS011;2540;50.928;6.856;2023-03-16T03:30:00;3.20;;;2.67;;
5042;SDS011;2540;50.928;6.856;2023-03-16T03:32:25;4.90;;;2.90;;
5042;SDS011;2540;50.928;6.856;2023-03-16T03:34:51;3.90;;;1.90;;
5042;SDS011;2540;50.928;6.856;2023-03-16T03:37:16;5.40;;;2.43;;
5042;SDS011;2540;50.928;6.856;2023-03-16T03:39:42;3.37;;;1.93;;
5042;SDS011;2540;50.928;6.856;2023-03-16T03:42:09;4.33;;;2.13;;
5042;SDS011;2540;50.928;6.856;2023-03-16T03:44:35;3.27;;;2.00;;
5042;SDS011;2540;50.928;6.856;2023-03-16T03:47:01;3.57;;;1.90;;
5042;SDS011;2540;50.928;6.856;2023-03-16T03:49:26;3.07;;;1.93;;
5042;SDS011;2540;50.928;6.856;2023-03-16T03:51:52;4.23;;;1.97;;
5042;SDS011;2540;50.928;6.856;2023-03-16T03:54:18;6.17;;;2.23;;
5042;SDS011;2540;50.928;6.856;2023-03-16T03:56:43;8.17;;;2.30;;
5042;SDS011;2540;50.928;6.856;2023-03-16T03:59:09;5.90;;;2.33;;
5042;SDS011;2540;50.928;6.856;2023-03-16T04:01:34;4.00;;;1.90;;
5042;SDS011;2540;50.928;6.856;2023-03-16T04:04:00;5.40;;;2.27;;
5042;SDS011;2540;50.928;6.856;2023-03-16T04:06:25;8.97;;;2.60;;
5042;SDS011;2540;50.928;6.856;2023-03-16T04:08:51;5.07;;;2.37;;
5042;SDS011;2540;50.928;6.856;2023-03-16T04:11:18;8.17;;;2.50;;
5042;SDS011;2540;50.928;6.856;2023-03-16T04:13:44;7.90;;;2.17;;
5042;SDS011;2540;50.928;6.856;2023-03-16T04:16:10;3.80;;;2.27;;
5042;SDS011;2540;50.928;6.856;2023-03-16T04:18:40;3.77;;;1.83;;
5042;SDS011;2540;50.928;6.856;2023-03-16T04:21:05;5.50;;;2.50;;
5042;SDS011;2540;50.928;6.856;2023-03-16T04:23:32;6.07;;;2.43;;
5042;SDS011;2540;50.928;6.856;2023-03-16T04:25:58;2.60;;;2.37;;
5042;SDS011;2540;50.928;6.856;2023-03-16T04:28:24;3.77;;;2.67;;
5042;SDS011;2540;50.928;6.856;2023-03-16T04:30:53;7.57;;;2.67;;
5042;SDS011;2540;50.928;6.856;2023-03-16T04:33:19;4.80;;;2.27;;
5042;SDS011;2540;50.928;6.856;2023-03-16T04:35:45;5.30;;;2.60;;
5042;SDS011;2540;50.928;6.856;2023-03-16T04:38:11;6.13;;;2.70;;
5042;SDS011;2540;50.928;6.856;2023-03-16T04:40:36;3.43;;;2.13;;
5042;SDS011;2540;50.928;6.856;2023-03-16T04:43:02;7.40;;;2.80;;
5042;SDS011;2540;50.928;6.856;2023-03-16T04:45:27;3.07;;;2.57;;
5042;SDS011;2540;50.928;6.856;2023-03-16T04:47:53;6.07;;;2.80;;
5042;SDS011;2540;50.928;6.856;2023-03-16T04:50:18;5.10;;;2.80;;
5042;SDS011;2540;50.928;6.856;2023-03-16T04:52:44;5.73;;;2.30;;
5042;SDS011;2540;50.928;6.856;2023-03-16T04:55:09;7.03;;;3.17;;
5042;SDS011;2540;50.928;6.856;2023-03-16T04:57:34;3.93;;;2.97;;
5042;SDS011;2540;50.928;6.856;2023-03-16T05:00:00;4.97;;;2.67;;
5042;SDS011;2540;50.928;6.856;2023-03-16T05:02:26;6.37;;;2.80;;
5042;SDS011;2540;50.928;6.856;2023-03-16T05:04:51;7.53;;;2.77;;
5042;SDS011;2540;50.928;6.856;2023-03-16T05:07:17;5.07;;;3.00;;
5042;SDS011;2540;50.928;6.856;2023-03-16T05:09:42;5.27;;;2.87;;
5042;SDS011;2540;50.928;6.856;2023-03-16T05:12:08;6.70;;;3.33;;
5042;SDS011;2540;50.928;6.856;2023-03-16T05:14:33;6.20;;;2.70;;
5042;SDS011;2540;50.928;6.856;2023-03-16T05:17:00;5.83;;;2.63;;
5042;SDS011;2540;50.928;6.856;2023-03-16T05:19:28;8.13;;;3.20;;
5042;SDS011;2540;50.928;6.856;2023-03-16T05:21:54;4.10;;;2.80;;
5042;SDS011;2540;50.928;6.856;2023-03-16T05:24:20;4.97;;;3.17;;
5042;SDS011;2540;50.928;6.856;2023-03-16T05:26:47;6.53;;;3.00;;
5042;SDS011;2540;50.928;6.856;2023-03-16T05:29:12;4.73;;;2.47;;
5042;SDS011;2540;50.928;6.856;2023-03-16T05:31:37;7.00;;;3.40;;
5042;SDS011;2540;50.928;6.856;2023-03-16T05:34:03;4.83;;;2.90;;
5042;SDS011;2540;50.928;6.856;2023-03-16T05:36:28;8.00;;;3.03;;
5042;SDS011;2540;50.928;6.856;2023-03-16T05:38:54;4.80;;;3.30;;
5042;SDS011;2540;50.928;6.856;2023-03-16T05:41:19;6.00;;;2.70;;
5042;SDS011;2540;50.928;6.856;2023-03-16T05:43:45;5.00;;;2.90;;
5042;SDS011;2540;50.928;6.856;2023-03-16T05:46:11;6.60;;;3.70;;
5042;SDS011;2540;50.928;6.856;2023-03-16T05:48:37;4.93;;;3.10;;
5042;SDS011;2540;50.928;6.856;2023-03-16T05:51:03;3.77;;;2.57;;
5042;SDS011;2540;50.928;6.856;2023-03-16T05:53:30;2.83;;;2.57;;
5042;SDS011;2540;50.928;6.856;2023-03-16T05:55:56;3.23;;;2.70;;
5042;SDS011;2540;50.928;6.856;2023-03-16T05:58:21;4.27;;;3.33;;
5042;SDS011;2540;50.928;6.856;2023-03-16T06:00:47;5.43;;;3.27;;
5042;SDS011;2540;50.928;6.856;2023-03-16T06:03:14;8.20;;;4.53;;
5042;SDS011;2540;50.928;6.856;2023-03-16T06:05:39;7.17;;;3.43;;
5042;SDS011;2540;50.928;6.856;2023-03-16T06:08:05;4.93;;;3.80;;
5042;SDS011;2540;50.928;6.856;2023-03-16T06:10:31;8.57;;;3.40;;
5042;SDS011;2540;50.928;6.856;2023-03-16T06:12:56;6.00;;;3.30;;
5042;SDS011;2540;50.928;6.856;2023-03-16T06:15:21;6.43;;;3.87;;
5042;SDS011;2540;50.928;6.856;2023-03-16T06:17:49;6.47;;;3.60;;
5042;SDS011;2540;50.928;6.856;2023-03-16T06:20:14;8.60;;;4.20;;
5042;SDS011;2540;50.928;6.856;2023-03-16T06:22:41;5.80;;;3.43;;
5042;SDS011;2540;50.928;6.856;2023-03-16T06:25:08;8.17;;;3.20;;
5042;SDS011;2540;50.928;6.856;2023-03-16T06:27:34;6.90;;;4.07;;
5042;SDS011;2540;50.928;6.856;2023-03-16T06:30:00;7.40;;;3.53;;
5042;SDS011;2540;50.928;6.856;2023-03-16T06:32:25;4.37;;;2.93;;
5042;SDS011;2540;50.928;6.856;2023-03-16T06:34:51;5.57;;;3.70;;
5042;SDS011;2540;50.928;6.856;2023-03-16T06:37:16;5.20;;;3.60;;
5042;SDS011;2540;50.928;6.856;2023-03-16T06:39:42;7.30;;;3.67;;
5042;SDS011;2540;50.928;6.856;2023-03-16T06:42:08;7.63;;;3.83;;
5042;SDS011;2540;50.928;6.856;2023-03-16T06:44:34;11.83;;;3.73;;
5042;SDS011;2540;50.928;6.856;2023-03-16T06:46:59;7.30;;;3.23;;
5042;SDS011;2540;50.928;6.856;2023-03-16T06:49:25;6.33;;;3.80;;
5042;SDS011;2540;50.928;6.856;2023-03-16T06:51:50;7.50;;;3.90;;
5042;SDS011;2540;50.928;6.856;2023-03-16T06:54:15;8.17;;;3.60;;
5042;SDS011;2540;50.928;6.856;2023-03-16T06:56:41;8.27;;;3.47;;
5042;SDS011;2540;50.928;6.856;2023-03-16T06:59:06;8.33;;;3.73;;
5042;SDS011;2540;50.928;6.856;2023-03-16T07:01:31;7.07;;;3.70;;
5042;SDS011;2540;50.928;6.856;2023-03-16T07:03:57;9.03;;;3.50;;
5042;SDS011;2540;50.928;6.856;2023-03-16T07:06:22;7.23;;;3.80;;
5042;SDS011;2540;50.928;6.856;2023-03-16T07:08:47;5.20;;;3.27;;
5042;SDS011;2540;50.928;6.856;2023-03-16T07:11:13;7.00;;;4.40;;
5042;SDS011;2540;50.928;6.856;2023-03-16T07:13:39;6.77;;;3.60;;
5042;SDS011;2540;50.928;6.856;2023-03-16T07:16:04;5.13;;;3.30;;
5042;SDS011;2540;50.928;6.856;2023-03-16T07:18:30;5.93;;;3.40;;
5042;SDS011;2540;50.928;6.856;2023-03-16T07:20:56;6.20;;;3.70;;
5042;SDS011;2540;50.928;6.856;2023-03-16T07:23:21;7.20;;;4.50;;
5042;SDS011;2540;50.928;6.856;2023-03-16T07:25:48;11.33;;;4.00;;
5042;SDS011;2540;50.928;6.856;2023-03-16T07:28:13;5.87;;;3.40;;
5042;SDS011;2540;50.928;6.856;2023-03-16T07:30:38;8.13;;;4.10;;
5042;SDS011;2540;50.928;6.856;2023-03-16T07:33:04;8.27;;;3.83;;
5042;SDS011;2540;50.928;6.856;2023-03-16T07:35:29;9.27;;;3.80;;
5042;SDS011;2540;50.928;6.856;2023-03-16T07:37:55;7.93;;;3.90;;
5042;SDS011;2540;50.928;6.856;2023-03-16T07:40:20;7.30;;;3.70;;
5042;SDS011;2540;50.928;6.856;2023-03-16T07:42:45;9.93;;;3.80;;
5042;SDS011;2540;50.928;6.856;2023-03-16T07:45:11;6.67;;;3.40;;
5042;SDS011;2540;50.928;6.856;2023-03-16T07:47:37;7.00;;;3.77;;
5042;SDS011;2540;50.928;6.856;2023-03-16T07:50:02;7.27;;;3.30;;
5042;SDS011;2540;50.928;6.856;2023-03-16T07:52:28;5.47;;;3.80;;
5042;SDS011;2540;50.928;6.856;2023-03-16T07:54:53;10.70;;;3.80;;
5042;SDS011;2540;50.928;6.856;2023-03-16T07:57:19;7.87;;;4.27;;
5042;SDS011;2540;50.928;6.856;2023-03-16T07:59:45;10.73;;;4.03;;
5042;SDS011;2540;50.928;6.856;2023-03-16T08:02:12;6.03;;;3.10;;
5042;SDS011;2540;50.928;6.856;2023-03-16T08:04:38;4.80;;;3.33;;
5042;SDS011;2540;50.928;6.856;2023-03-16T08:07:06;6.70;;;3.63;;
5042;SDS011;2540;50.928;6.856;2023-03-16T08:09:32;5.27;;;3.23;;
5042;SDS011;2540;50.928;6.856;2023-03-16T08:11:59;6.83;;;3.87;;
5042;SDS011;2540;50.928;6.856;2023-03-16T08:14:26;5.93;;;3.17;;
5042;SDS011;2540;50.928;6.856;2023-03-16T08:16:51;21.93;;;4.37;;
5042;SDS011;2540;50.928;6.856;2023-03-16T08:19:18;7.03;;;3.80;;
5042;SDS011;2540;50.928;6.856;2023-03-16T08:21:44;4.60;;;3.60;;
5042;SDS011;2540;50.928;6.856;2023-03-16T08:24:09;6.10;;;3.43;;
5042;SDS011;2540;50.928;6.856;2023-03-16T08:26:35;4.50;;;3.43;;
5042;SDS011;2540;50.928;6.856;2023-03-16T08:29:00;6.60;;;2.90;;
5042;SDS011;2540;50.928;6.856;2023-03-16T08:31:27;7.87;;;3.30;;
5042;SDS011;2540;50.928;6.856;2023-03-16T08:33:53;8.70;;;3.80;;
5042;SDS011;2540;50.928;6.856;2023-03-16T08:36:18;8.63;;;3.80;;
5042;SDS011;2540;50.928;6.856;2023-03-16T08:38:45;8.83;;;4.00;;
5042;SDS011;2540;50.928;6.856;2023-03-16T08:41:11;6.80;;;3.40;;
5042;SDS011;2540;50.928;6.856;2023-03-16T08:43:36;4.00;;;3.00;;
5042;SDS011;2540;50.928;6.856;2023-03-16T08:46:02;5.57;;;3.40;;
5042;SDS011;2540;50.928;6.856;2023-03-16T08:48:29;7.43;;;3.40;;
5042;SDS011;2540;50.928;6.856;2023-03-16T08:50:57;8.43;;;3.07;;
5042;SDS011;2540;50.928;6.856;2023-03-16T08:53:25;6.40;;;3.13;;
5042;SDS011;2540;50.928;6.856;2023-03-16T08:55:52;8.53;;;3.30;;
5042;SDS011;2540;50.928;6.856;2023-03-16T08:58:25;10.73;;;3.20;;
5042;SDS011;2540;50.928;6.856;2023-03-16T09:00:51;3.97;;;2.83;;
5042;SDS011;2540;50.928;6.856;2023-03-16T09:03:16;5.00;;;2.87;;
5042;SDS011;2540;50.928;6.856;2023-03-16T09:05:42;6.47;;;3.10;;
5042;SDS011;2540;50.928;6.856;2023-03-16T09:08:07;4.23;;;3.10;;
5042;SDS011;2540;50.928;6.856;2023-03-16T09:10:32;4.57;;;3.37;;
5042;SDS011;2540;50.928;6.856;2023-03-16T09:12:58;8.10;;;3.07;;
5042;SDS011;2540;50.928;6.856;2023-03-16T09:15:23;8.37;;;3.33;;
5042;SDS011;2540;50.928;6.856;2023-03-16T09:17:48;3.93;;;2.87;;
5042;SDS011;2540;50.928;6.856;2023-03-16T09:20:15;7.57;;;3.43;;
5042;SDS011;2540;50.928;6.856;2023-03-16T09:22:42;6.57;;;3.57;;
5042;SDS011;2540;50.928;6.856;2023-03-16T09:25:08;3.20;;;2.90;;
5042;SDS011;2540;50.928;6.856;2023-03-16T09:27:35;4.47;;;3.03;;
5042;SDS011;2540;50.928;6.856;2023-03-16T09:30:01;5.30;;;3.20;;
5042;SDS011;2540;50.928;6.856;2023-03-16T09:32:28;4.97;;;2.90;;
5042;SDS011;2540;50.928;6.856;2023-03-16T09:34:54;4.50;;;3.17;;
5042;SDS011;2540;50.928;6.856;2023-03-16T09:37:20;4.30;;;2.80;;
5042;SDS011;2540;50.928;6.856;2023-03-16T09:39:46;6.53;;;3.37;;
5042;SDS011;2540;50.928;6.856;2023-03-16T09:42:15;4.30;;;2.77;;
5042;SDS011;2540;50.928;6.856;2023-03-16T09:47:22;5.23;;;3.20;;
5042;SDS011;2540;50.928;6.856;2023-03-16T09:49:50;5.87;;;3.50;;
5042;SDS011;2540;50.928;6.856;2023-03-16T09:52:50;9.80;;;3.30;;
5042;SDS011;2540;50.928;6.856;2023-03-16T09:55:15;6.80;;;4.07;;
5042;SDS011;2540;50.928;6.856;2023-03-16T09:57:49;7.57;;;3.80;;
5042;SDS011;2540;50.928;6.856;2023-03-16T10:05:24;6.40;;;3.60;;
5042;SDS011;2540;50.928;6.856;2023-03-16T10:10:22;4.07;;;3.07;;
5042;SDS011;2540;50.928;6.856;2023-03-16T10:12:49;5.20;;;3.43;;
5042;SDS011;2540;50.928;6.856;2023-03-16T10:15:21;7.40;;;3.47;;
5042;SDS011;2540;50.928;6.856;2023-03-16T10:17:53;6.83;;;3.13;;
5042;SDS011;2540;50.928;6.856;2023-03-16T10:20:23;8.23;;;5.00;;
5042;SDS011;2540;50.928;6.856;2023-03-16T10:22:51;5.43;;;3.77;;
5042;SDS011;2540;50.928;6.856;2023-03-16T10:28:00;5.47;;;2.70;;
5042;SDS011;2540;50.928;6.856;2023-03-16T10:33:02;10.10;;;4.23;;
5042;SDS011;2540;50.928;6.856;2023-03-16T10:35:46;6.00;;;3.63;;
5042;SDS011;2540;50.928;6.856;2023-03-16T10:41:18;5.00;;;3.63;;
5042;SDS011;2540;50.928;6.856;2023-03-16T10:43:49;7.23;;;3.63;;
5042;SDS011;2540;50.928;6.856;2023-03-16T10:46:39;5.53;;;3.50;;
5042;SDS011;2540;50.928;6.856;2023-03-16T10:49:37;9.03;;;4.17;;
5042;SDS011;2540;50.928;6.856;2023-03-16T10:52:10;6.30;;;3.53;;
5042;SDS011;2540;50.928;6.856;2023-03-16T10:54:38;5.30;;;3.60;;
5042;SDS011;2540;50.928;6.856;2023-03-16T10:57:24;4.23;;;3.27;;
5042;SDS011;2540;50.928;6.856;2023-03-16T11:00:06;4.80;;;3.40;;
5042;SDS011;2540;50.928;6.856;2023-03-16T11:02:37;6.90;;;3.57;;
5042;SDS011;2540;50.928;6.856;2023-03-16T11:05:13;4.93;;;2.77;;
5042;SDS011;2540;50.928;6.856;2023-03-16T11:07:49;4.30;;;3.10;;
5042;SDS011;2540;50.928;6.856;2023-03-16T11:10:34;9.97;;;3.70;;
5042;SDS011;2540;50.928;6.856;2023-03-16T11:15:35;5.70;;;3.50;;
5042;SDS011;2540;50.928;6.856;2023-03-16T11:18:02;4.67;;;3.27;;
5042;SDS011;2540;50.928;6.856;2023-03-16T11:20:28;8.60;;;3.23;;
5042;SDS011;2540;50.928;6.856;2023-03-16T11:22:54;9.10;;;3.50;;
5042;SDS011;2540;50.928;6.856;2023-03-16T11:25:26;5.97;;;3.10;;
5042;SDS011;2540;50.928;6.856;2023-03-16T11:30:40;6.80;;;3.20;;
5042;SDS011;2540;50.928;6.856;2023-03-16T11:33:09;3.17;;;2.73;;
5042;SDS011;2540;50.928;6.856;2023-03-16T11:38:20;7.60;;;3.30;;
5042;SDS011;2540;50.928;6.856;2023-03-16T11:40:54;5.87;;;3.60;;
5042;SDS011;2540;50.928;6.856;2023-03-16T11:49:05;8.57;;;3.30;;
5042;SDS011;2540;50.928;6.856;2023-03-16T11:55:22;6.13;;;3.20;;
5042;SDS011;2540;50.928;6.856;2023-03-16T12:19:36;5.30;;;2.50;;
5042;SDS011;2540;50.928;6.856;2023-03-16T12:22:38;4.73;;;2.20;;
5042;SDS011;2540;50.928;6.856;2023-03-16T12:24:57;3.60;;;1.67;;
5042;SDS011;2540;50.928;6.856;2023-03-16T12:27:24;3.67;;;2.13;;
5042;SDS011;2540;50.928;6.856;2023-03-16T12:35:56;3.67;;;1.60;;
5042;SDS011;2540;50.928;6.856;2023-03-16T12:38:41;3.83;;;1.80;;
5042;SDS011;2540;50.928;6.856;2023-03-16T12:44:18;4.30;;;1.93;;
5042;SDS011;2540;50.928;6.856;2023-03-16T12:49:37;3.70;;;2.30;;
5042;SDS011;2540;50.928;6.856;2023-03-16T12:52:04;7.53;;;2.17;;
5042;SDS011;2540;50.928;6.856;2023-03-16T12:54:31;9.47;;;1.73;;
5042;SDS011;2540;50.928;6.856;2023-03-16T12:59:35;5.83;;;2.20;;
5042;SDS011;2540;50.928;6.856;2023-03-16T13:02:02;5.33;;;2.00;;
5042;SDS011;2540;50.928;6.856;2023-03-16T13:04:37;5.13;;;2.60;;
5042;SDS011;2540;50.928;6.856;2023-03-16T13:07:05;4.43;;;2.40;;
5042;SDS011;2540;50.928;6.856;2023-03-16T13:09:34;3.67;;;1.67;;
5042;SDS011;2540;50.928;6.856;2023-03-16T13:12:01;2.20;;;1.60;;
5042;SDS011;2540;50.928;6.856;2023-03-16T13:14:37;3.50;;;2.10;;
5042;SDS011;2540;50.928;6.856;2023-03-16T13:19:41;2.80;;;1.80;;
5042;SDS011;2540;50.928;6.856;2023-03-16T13:24:50;2.40;;;1.20;;
5042;SDS011;2540;50.928;6.856;2023-03-16T13:27:26;3.60;;;2.57;;
5042;SDS011;2540;50.928;6.856;2023-03-16T13:29:59;4.27;;;1.70;;
5042;SDS011;2540;50.928;6.856;2023-03-16T13:32:29;6.37;;;1.93;;
5042;SDS011;2540;50.928;6.856;2023-03-16T13:34:56;4.43;;;2.23;;
5042;SDS011;2540;50.928;6.856;2023-03-16T13:37:26;3.50;;;1.70;;
5042;SDS011;2540;50.928;6.856;2023-03-16T13:40:00;5.00;;;2.70;;
5042;SDS011;2540;50.928;6.856;2023-03-16T13:42:29;5.13;;;2.03;;
5042;SDS011;2540;50.928;6.856;2023-03-16T13:44:57;9.83;;;2.53;;
5042;SDS011;2540;50.928;6.856;2023-03-16T13:47:24;3.97;;;2.40;;
5042;SDS011;2540;50.928;6.856;2023-03-16T13:49:55;1.93;;;1.23;;
5042;SDS011;2540;50.928;6.856;2023-03-16T13:52:27;4.27;;;2.40;;
5042;SDS011;2540;50.928;6.856;2023-03-16T13:54:54;1.60;;;1.50;;
5042;SDS011;2540;50.928;6.856;2023-03-16T13:57:26;3.27;;;1.57;;
5042;SDS011;2540;50.928;6.856;2023-03-16T13:59:59;2.63;;;1.50;;
5042;SDS011;2540;50.928;6.856;2023-03-16T14:02:29;4.90;;;2.50;;
5042;SDS011;2540;50.928;6.856;2023-03-16T14:04:55;3.33;;;1.70;;
5042;SDS011;2540;50.928;6.856;2023-03-16T14:07:20;3.07;;;1.90;;
5042;SDS011;2540;50.928;6.856;2023-03-16T14:09:47;2.50;;;1.97;;
5042;SDS011;2540;50.928;6.856;2023-03-16T14:12:15;3.37;;;1.57;;
5042;SDS011;2540;50.928;6.856;2023-03-16T14:14:44;3.23;;;1.60;;
5042;SDS011;2540;50.928;6.856;2023-03-16T14:17:15;2.83;;;1.30;;
5042;SDS011;2540;50.928;6.856;2023-03-16T14:19:45;3.77;;;1.70;;
5042;SDS011;2540;50.928;6.856;2023-03-16T14:22:17;3.10;;;1.60;;
5042;SDS011;2540;50.928;6.856;2023-03-16T14:24:45;4.40;;;1.50;;
5042;SDS011;2540;50.928;6.856;2023-03-16T14:29:41;3.97;;;1.80;;
5042;SDS011;2540;50.928;6.856;2023-03-16T14:32:18;19.50;;;6.90;;
5042;SDS011;2540;50.928;6.856;2023-03-16T14:34:49;8.73;;;2.17;;
5042;SDS011;2540;50.928;6.856;2023-03-16T14:37:15;1.93;;;1.30;;
5042;SDS011;2540;50.928;6.856;2023-03-16T14:39:44;1.63;;;1.40;;
5042;SDS011;2540;50.928;6.856;2023-03-16T14:44:42;5.17;;;2.03;;
5042;SDS011;2540;50.928;6.856;2023-03-16T14:47:09;5.27;;;1.80;;
5042;SDS011;2540;50.928;6.856;2023-03-16T14:49:49;2.70;;;1.53;;
5042;SDS011;2540;50.928;6.856;2023-03-16T14:52:25;2.57;;;1.60;;
5042;SDS011;2540;50.928;6.856;2023-03-16T14:54:52;2.07;;;1.60;;
5042;SDS011;2540;50.928;6.856;2023-03-16T14:57:19;2.40;;;1.70;;
5042;SDS011;2540;50.928;6.856;2023-03-16T14:59:45;3.47;;;1.50;;
5042;SDS011;2540;50.928;6.856;2023-03-16T15:02:14;4.97;;;1.40;;
5042;SDS011;2540;50.928;6.856;2023-03-16T15:04:41;3.50;;;1.63;;
5042;SDS011;2540;50.928;6.856;2023-03-16T15:07:21;4.27;;;2.07;;
5042;SDS011;2540;50.928;6.856;2023-03-16T15:09:48;2.60;;;1.47;;
5042;SDS011;2540;50.928;6.856;2023-03-16T15:12:15;3.50;;;2.30;;
5042;SDS011;2540;50.928;6.856;2023-03-16T15:14:42;3.20;;;2.00;;
5042;SDS011;2540;50.928;6.856;2023-03-16T15:17:26;2.97;;;1.80;;
5042;SDS011;2540;50.928;6.856;2023-03-16T15:19:52;5.73;;;2.63;;
5042;SDS011;2540;50.928;6.856;2023-03-16T15:22:18;5.30;;;1.50;;
5042;SDS011;2540;50.928;6.856;2023-03-16T15:24:55;4.33;;;1.77;;
5042;SDS011;2540;50.928;6.856;2023-03-16T15:27:22;3.57;;;1.70;;
5042;SDS011;2540;50.928;6.856;2023-03-16T15:29:50;3.80;;;1.60;;
5042;SDS011;2540;50.928;6.856;2023-03-16T15:32:15;4.97;;;2.50;;
5042;SDS011;2540;50.928;6.856;2023-03-16T15:34:41;2.23;;;1.87;;
5042;SDS011;2540;50.928;6.856;2023-03-16T15:37:11;3.43;;;1.70;;
5042;SDS011;2540;50.928;6.856;2023-03-16T15:39:37;2.23;;;1.63;;
5042;SDS011;2540;50.928;6.856;2023-03-16T15:42:07;2.73;;;1.73;;
5042;SDS011;2540;50.928;6.856;2023-03-16T15:44:39;2.53;;;1.77;;
5042;SDS011;2540;50.928;6.856;2023-03-16T15:47:04;1.97;;;1.40;;
5042;SDS011;2540;50.928;6.856;2023-03-16T15:49:30;2.93;;;1.87;;
5042;SDS011;2540;50.928;6.856;2023-03-16T15:51:55;3.90;;;2.13;;
5042;SDS011;2540;50.928;6.856;2023-03-16T15:54:21;2.70;;;2.27;;
5042;SDS011;2540;50.928;6.856;2023-03-16T15:56:47;2.10;;;1.83;;
5042;SDS011;2540;50.928;6.856;2023-03-16T15:59:13;4.63;;;2.43;;
5042;SDS011;2540;50.928;6.856;2023-03-16T16:01:41;5.07;;;2.60;;
5042;SDS011;2540;50.928;6.856;2023-03-16T16:04:13;3.90;;;2.27;;
5042;SDS011;2540;50.928;6.856;2023-03-16T16:06:41;4.33;;;2.73;;
5042;SDS011;2540;50.928;6.856;2023-03-16T16:09:06;4.83;;;2.00;;
5042;SDS011;2540;50.928;6.856;2023-03-16T16:11:31;5.17;;;2.53;;
5042;SDS011;2540;50.928;6.856;2023-03-16T16:13:57;4.73;;;2.40;;
5042;SDS011;2540;50.928;6.856;2023-03-16T16:16:23;7.40;;;2.67;;
5042;SDS011;2540;50.928;6.856;2023-03-16T16:18:50;3.10;;;2.10;;
5042;SDS011;2540;50.928;6.856;2023-03-16T16:21:17;4.63;;;2.23;;
5042;SDS011;2540;50.928;6.856;2023-03-16T16:23:46;4.10;;;2.60;;
5042;SDS011;2540;50.928;6.856;2023-03-16T16:26:23;3.80;;;2.20;;
5042;SDS011;2540;50.928;6.856;2023-03-16T16:28:53;5.53;;;2.63;;
5042;SDS011;2540;50.928;6.856;2023-03-16T16:31:20;6.40;;;2.70;;
5042;SDS011;2540;50.928;6.856;2023-03-16T16:33:47;4.60;;;2.60;;
5042;SDS011;2540;50.928;6.856;2023-03-16T16:36:13;3.80;;;2.83;;
5042;SDS011;2540;50.928;6.856;2023-03-16T16:38:41;3.60;;;2.77;;
5042;SDS011;2540;50.928;6.856;2023-03-16T16:41:07;6.57;;;2.37;;
5042;SDS011;2540;50.928;6.856;2023-03-16T16:46:02;4.90;;;3.03;;
5042;SDS011;2540;50.928;6.856;2023-03-16T16:48:31;3.73;;;2.37;;